createdAt,value
2018-09-21T00:01:53.697Z,62.50
2018-09-21T00:04:21.973Z,62.30
2018-09-21T00:06:50.231Z,62.20
2018-09-21T00:09:18.504Z,62.30
2018-09-21T00:11:46.804Z,62.20
2018-09-21T00:14:15.042Z,62.10
2018-09-21T00:16:43.293Z,62.20
2018-09-21T00:19:11.489Z,62.10
2018-09-21T00:21:39.808Z,62.30
2018-09-21T00:24:08.073Z,62.30
2018-09-21T00:26:36.346Z,62.30
2018-09-21T00:29:04.634Z,62.30
2018-09-21T00:31:32.882Z,62.60
2018-09-21T00:34:01.077Z,62.80
2018-09-21T00:36:29.339Z,62.80
2018-09-21T00:38:57.513Z,62.90
2018-09-21T00:41:25.693Z,62.80
2018-09-21T00:43:53.885Z,62.80
2018-09-21T00:46:22.059Z,62.90
2018-09-21T00:48:50.235Z,63.10
2018-09-21T00:51:18.450Z,63.10
2018-09-21T00:53:46.631Z,62.90
2018-09-21T00:56:21.470Z,63.10
2018-09-21T00:58:49.668Z,63.10
2018-09-21T01:01:17.914Z,62.80
2018-09-21T01:03:46.114Z,62.80
2018-09-21T01:06:14.377Z,62.70
2018-09-21T01:08:42.577Z,63.10
2018-09-21T01:11:10.778Z,63.50
2018-09-21T01:13:38.953Z,64.30
2018-09-21T01:16:07.164Z,64.70
2018-09-21T01:18:41.966Z,64.70
2018-09-21T01:21:10.232Z,64.90
2018-09-21T01:23:38.405Z,65.30
2018-09-21T01:26:06.613Z,65.50
2018-09-21T01:28:34.965Z,65.50
2018-09-21T01:31:03.147Z,65.40
2018-09-21T01:33:31.349Z,65.40
2018-09-21T01:35:59.642Z,65.60
2018-09-21T01:38:27.885Z,65.70
2018-09-21T01:40:56.138Z,65.70
2018-09-21T01:43:24.365Z,65.10
2018-09-21T01:45:52.545Z,64.40
2018-09-21T01:48:20.777Z,64.10
2018-09-21T01:50:48.994Z,63.50
2018-09-21T01:53:17.161Z,63.70
2018-09-21T01:55:45.368Z,63.30
2018-09-21T01:58:13.616Z,63.10
2018-09-21T02:00:41.779Z,63.10
2018-09-21T02:03:09.986Z,63.30
2018-09-21T02:05:38.159Z,63.70
2018-09-21T02:08:06.380Z,63.90
2018-09-21T02:10:34.565Z,64.20
2018-09-21T02:13:02.840Z,64.10
2018-09-21T02:15:31.032Z,63.60
2018-09-21T02:17:59.309Z,63.40
2018-09-21T02:20:27.515Z,63.00
2018-09-21T02:22:55.732Z,62.90
2018-09-21T02:25:23.927Z,62.80
2018-09-21T02:27:52.149Z,62.90
2018-09-21T02:30:20.311Z,63.50
2018-09-21T02:32:48.534Z,64.20
2018-09-21T02:35:16.721Z,64.60
2018-09-21T02:37:44.971Z,65.10
2018-09-21T02:40:13.191Z,65.60
2018-09-21T02:42:41.578Z,65.90
2018-09-21T02:45:09.744Z,66.20
2018-09-21T02:47:38.008Z,66.60
2018-09-21T02:50:06.192Z,66.60
2018-09-21T02:52:34.418Z,66.80
2018-09-21T02:55:02.595Z,67.10
2018-09-21T02:57:30.823Z,67.30
2018-09-21T02:59:59.050Z,67.60
2018-09-21T03:02:27.253Z,67.50
2018-09-21T03:04:56.498Z,67.60
2018-09-21T03:07:26.065Z,67.20
2018-09-21T03:09:54.841Z,66.90
2018-09-21T03:12:23.103Z,66.40
2018-09-21T03:14:51.399Z,66.40
2018-09-21T03:17:19.635Z,66.80
2018-09-21T03:19:47.831Z,67.50
2018-09-21T03:22:16.122Z,67.80
2018-09-21T03:24:44.416Z,67.80
2018-09-21T03:27:12.593Z,67.60
2018-09-21T03:29:40.846Z,67.50
2018-09-21T03:32:09.033Z,67.60
2018-09-21T03:34:37.225Z,67.60
2018-09-21T03:37:05.459Z,67.80
2018-09-21T03:39:33.819Z,68.10
2018-09-21T03:42:02.012Z,69.10
2018-09-21T03:44:30.200Z,68.70
2018-09-21T03:46:58.473Z,69.20
2018-09-21T03:49:26.724Z,69.10
2018-09-21T03:51:54.922Z,68.70
2018-09-21T03:54:23.185Z,68.50
2018-09-21T03:56:51.349Z,68.40
2018-09-21T03:59:19.575Z,68.60
2018-09-21T04:01:47.841Z,68.50
2018-09-21T04:04:16.175Z,67.90
2018-09-21T04:06:44.424Z,67.60
2018-09-21T04:09:12.669Z,67.50
2018-09-21T04:11:41.020Z,67.50
2018-09-21T04:14:09.310Z,67.40
2018-09-21T04:16:37.501Z,67.70
2018-09-21T04:19:05.861Z,68.00
2018-09-21T04:21:34.106Z,68.20
2018-09-21T04:24:02.668Z,68.60
2018-09-21T04:26:30.836Z,68.80
2018-09-21T04:28:59.006Z,69.10
2018-09-21T04:31:27.205Z,68.90
2018-09-21T04:33:55.473Z,69.40
2018-09-21T04:36:23.681Z,69.60
2018-09-21T04:38:51.875Z,69.80
2018-09-21T04:41:20.069Z,69.80
2018-09-21T04:43:48.276Z,69.50
2018-09-21T04:46:16.552Z,69.40
2018-09-21T04:48:45.832Z,69.20
2018-09-21T04:51:14.178Z,68.80
2018-09-21T04:53:42.585Z,68.70
2018-09-21T04:56:17.064Z,68.40
2018-09-21T04:58:45.362Z,68.20
2018-09-21T05:01:13.576Z,68.30
2018-09-21T05:03:41.774Z,68.20
2018-09-21T05:06:09.951Z,68.40
2018-09-21T05:08:38.221Z,68.00
2018-09-21T05:11:06.493Z,67.70
2018-09-21T05:13:34.692Z,67.60
2018-09-21T05:16:02.885Z,67.50
2018-09-21T05:18:31.051Z,67.80
2018-09-21T05:20:59.318Z,67.90
2018-09-21T05:23:27.567Z,67.60
2018-09-21T05:25:55.854Z,67.30
2018-09-21T05:28:24.129Z,67.00
2018-09-21T05:30:52.400Z,66.60
2018-09-21T05:33:20.576Z,66.70
2018-09-21T05:35:48.915Z,66.30
2018-09-21T05:38:17.856Z,66.00
2018-09-21T05:40:46.121Z,65.90
2018-09-21T05:43:14.357Z,65.50
2018-09-21T05:45:42.596Z,65.40
2018-09-21T05:48:10.795Z,65.30
2018-09-21T05:50:39.209Z,65.10
2018-09-21T05:53:07.994Z,64.90
2018-09-21T05:55:36.274Z,64.50
2018-09-21T05:58:04.553Z,64.40
2018-09-21T06:00:32.785Z,64.40
2018-09-21T06:03:01.099Z,63.70
2018-09-21T06:05:29.222Z,63.80
2018-09-21T06:07:57.613Z,63.30
2018-09-21T06:10:26.063Z,62.20
2018-09-21T06:12:54.666Z,62.10
2018-09-21T06:15:22.918Z,61.20
2018-09-21T06:17:57.343Z,60.60
2018-09-21T06:20:25.606Z,60.10
2018-09-21T06:22:53.940Z,59.70
2018-09-21T06:25:22.165Z,59.20
2018-09-21T06:27:50.380Z,58.40
2018-09-21T06:30:18.689Z,58.00
2018-09-21T06:32:46.982Z,57.70
2018-09-21T06:35:15.255Z,56.90
2018-09-21T06:37:43.532Z,56.00
2018-09-21T06:40:11.827Z,55.10
2018-09-21T06:42:40.000Z,54.50
2018-09-21T06:45:08.284Z,53.80
2018-09-21T06:47:36.595Z,53.70
2018-09-21T06:50:04.841Z,51.80
2018-09-21T06:52:33.025Z,51.10
2018-09-21T06:55:01.410Z,50.00
2018-09-21T06:57:29.730Z,49.10
2018-09-21T06:59:57.920Z,48.10
2018-09-21T07:02:26.226Z,47.40
2018-09-21T07:04:58.141Z,46.80
2018-09-21T07:07:26.453Z,46.20
2018-09-21T07:09:54.711Z,45.30
2018-09-21T07:12:22.902Z,44.50
2018-09-21T07:14:57.542Z,44.10
2018-09-21T07:17:25.766Z,43.80
2018-09-21T07:19:54.018Z,42.90
2018-09-21T07:22:22.231Z,42.10
2018-09-21T07:24:50.448Z,41.40
2018-09-21T07:27:18.725Z,41.00
2018-09-21T07:29:46.995Z,40.40
2018-09-21T07:32:15.198Z,40.00
2018-09-21T07:34:43.459Z,39.90
2018-09-21T07:37:11.686Z,39.10
2018-09-21T07:39:39.954Z,38.30
2018-09-21T07:42:08.172Z,37.60
2018-09-21T07:44:36.435Z,37.70
2018-09-21T07:47:04.634Z,36.60
2018-09-21T07:49:32.862Z,35.80
2018-09-21T07:52:01.137Z,36.50
2018-09-21T07:54:29.516Z,35.90
2018-09-21T07:56:57.822Z,35.90
2018-09-21T07:59:26.065Z,36.20
2018-09-21T08:01:54.324Z,35.70
2018-09-21T08:04:22.554Z,36.30
2018-09-21T08:06:50.839Z,36.30
2018-09-21T08:09:19.112Z,36.20
2018-09-21T08:11:47.458Z,36.50
2018-09-21T08:14:15.890Z,36.30
2018-09-21T08:16:44.147Z,36.40
2018-09-21T08:19:12.374Z,36.40
2018-09-21T08:21:40.665Z,35.40
2018-09-21T08:24:08.981Z,35.40
2018-09-21T08:26:37.392Z,34.60
2018-09-21T08:29:05.513Z,33.60
2018-09-21T08:31:33.826Z,32.50
2018-09-21T08:34:02.071Z,32.20
2018-09-21T08:36:30.454Z,31.60
2018-09-21T08:38:58.727Z,31.10
2018-09-21T08:41:27.054Z,30.80
2018-09-21T08:43:55.332Z,30.60
2018-09-21T08:46:23.550Z,30.20
2018-09-21T08:48:51.803Z,30.20
2018-09-21T08:51:20.081Z,30.40
2018-09-21T08:53:48.378Z,30.00
2018-09-21T08:56:16.583Z,30.10
2018-09-21T08:58:44.837Z,29.20
2018-09-21T09:01:13.158Z,28.30
2018-09-21T09:03:41.582Z,27.90
2018-09-21T09:06:10.171Z,27.10
2018-09-21T09:08:38.493Z,27.60
2018-09-21T09:11:06.777Z,27.10
2018-09-21T09:13:35.195Z,27.60
2018-09-21T09:16:03.433Z,26.80
2018-09-21T09:18:31.749Z,26.70
2018-09-21T09:21:00.082Z,26.80
2018-09-21T09:23:28.438Z,26.80
2018-09-21T09:25:56.645Z,26.30
2018-09-21T09:28:24.928Z,25.80
2018-09-21T09:30:53.195Z,26.10
2018-09-21T09:33:21.506Z,25.50
2018-09-21T09:35:49.756Z,25.20
2018-09-21T09:38:17.996Z,25.00
2018-09-21T09:40:46.267Z,24.30
2018-09-21T09:43:14.559Z,24.10
2018-09-21T09:45:42.792Z,24.10
2018-09-21T09:48:11.068Z,23.60
2018-09-21T09:50:39.332Z,23.60
2018-09-21T09:53:07.579Z,23.20
2018-09-21T09:55:35.762Z,23.30
2018-09-21T09:58:04.050Z,23.30
2018-09-21T10:00:40.404Z,23.20
2018-09-21T10:03:09.013Z,23.30
2018-09-21T10:05:41.907Z,23.20
2018-09-21T10:08:10.664Z,23.30
2018-09-21T10:10:39.857Z,23.50
2018-09-21T10:13:08.280Z,23.50
2018-09-21T10:15:36.702Z,23.70
2018-09-21T10:18:05.176Z,23.90
2018-09-21T10:20:33.479Z,24.20
2018-09-21T10:23:01.682Z,24.90
2018-09-21T10:25:30.109Z,25.10
2018-09-21T10:27:58.657Z,25.40
2018-09-21T10:30:26.709Z,25.40
2018-09-21T10:32:54.954Z,25.80
2018-09-21T10:35:23.298Z,26.40
2018-09-21T10:37:51.692Z,26.20
2018-09-21T10:40:19.992Z,26.60
2018-09-21T10:42:48.248Z,26.60
2018-09-21T10:45:16.562Z,27.00
2018-09-21T10:47:44.877Z,26.80
2018-09-21T10:50:13.138Z,26.60
2018-09-21T10:52:41.626Z,26.40
2018-09-21T10:55:09.876Z,26.40
2018-09-21T11:00:16.470Z,26.70
2018-09-21T11:02:44.747Z,27.10
2018-09-21T11:05:13.020Z,26.90
2018-09-21T11:07:41.282Z,27.00
2018-09-21T11:10:09.524Z,27.70
2018-09-21T11:12:37.851Z,27.20
2018-09-21T11:15:06.285Z,26.80
2018-09-21T11:17:34.559Z,26.90
2018-09-21T11:20:02.814Z,26.70
2018-09-21T11:22:31.274Z,26.30
2018-09-21T11:24:59.594Z,26.10
2018-09-21T11:27:27.865Z,25.50
2018-09-21T11:29:56.079Z,26.50
2018-09-21T11:32:24.425Z,25.90
2018-09-21T11:34:52.629Z,25.90
2018-09-21T11:37:21.233Z,25.80
2018-09-21T11:39:49.571Z,25.60
2018-09-21T11:42:17.866Z,25.50
2018-09-21T11:44:46.111Z,25.60
2018-09-21T11:47:14.417Z,25.70
2018-09-21T11:49:42.690Z,25.70
2018-09-21T11:52:10.946Z,25.60
2018-09-21T11:54:39.218Z,25.50
2018-09-21T11:57:07.449Z,25.40
2018-09-21T11:59:35.712Z,25.50
2018-09-21T12:02:04.000Z,25.90
2018-09-21T12:04:32.456Z,25.50
2018-09-21T12:07:00.846Z,25.90
2018-09-21T12:09:29.182Z,26.20
2018-09-21T12:11:57.514Z,26.30
2018-09-21T12:14:25.754Z,25.90
2018-09-21T12:16:54.053Z,26.10
2018-09-21T12:19:22.202Z,25.70
2018-09-21T12:21:50.539Z,25.10
2018-09-21T12:24:18.769Z,25.30
2018-09-21T12:26:47.048Z,25.40
2018-09-21T12:29:15.328Z,25.90
2018-09-21T12:31:43.586Z,25.80
2018-09-21T12:34:11.898Z,25.80
2018-09-21T12:36:40.192Z,25.80
2018-09-21T12:39:10.800Z,25.40
2018-09-21T12:41:39.115Z,25.40
2018-09-21T12:44:07.778Z,24.90
2018-09-21T12:46:36.119Z,25.00
2018-09-21T12:49:05.085Z,24.80
2018-09-21T12:51:34.325Z,24.80
2018-09-21T12:54:02.611Z,24.70
2018-09-21T12:56:30.944Z,24.50
2018-09-21T12:58:59.243Z,24.80
2018-09-21T13:01:27.628Z,24.80
2018-09-21T13:03:55.897Z,23.90
2018-09-21T13:06:24.175Z,24.50
2018-09-21T13:08:52.348Z,24.70
2018-09-21T13:11:20.582Z,23.80
2018-09-21T13:13:48.836Z,23.00
2018-09-21T13:16:17.065Z,23.20
2018-09-21T13:18:45.595Z,22.50
2018-09-21T13:21:13.923Z,22.80
2018-09-21T13:23:42.166Z,22.20
2018-09-21T13:26:10.398Z,22.20
2018-09-21T13:28:39.014Z,22.20
2018-09-21T13:31:07.310Z,22.20
2018-09-21T13:33:35.501Z,21.80
2018-09-21T13:36:03.776Z,21.80
2018-09-21T13:38:32.201Z,22.30
2018-09-21T13:41:00.615Z,22.70
2018-09-21T13:43:29.006Z,22.90
2018-09-21T13:45:57.291Z,23.00
2018-09-21T13:48:25.798Z,22.90
2018-09-21T13:50:54.169Z,22.70
2018-09-21T13:53:22.471Z,22.80
2018-09-21T13:55:50.735Z,23.00
2018-09-21T13:58:19.060Z,23.10
2018-09-21T14:00:47.258Z,23.10
2018-09-21T14:03:15.573Z,23.30
2018-09-21T14:05:43.784Z,23.20
2018-09-21T14:08:11.997Z,23.50
2018-09-21T14:10:40.337Z,23.60
2018-09-21T14:13:08.582Z,23.70
2018-09-21T14:15:36.810Z,24.00
2018-09-21T14:18:05.101Z,23.80
2018-09-21T14:20:33.381Z,24.20
2018-09-21T14:23:01.683Z,24.10
2018-09-21T14:25:29.901Z,24.40
2018-09-21T14:27:58.294Z,24.30
2018-09-21T14:30:26.590Z,24.50
2018-09-21T14:32:54.877Z,24.60
2018-09-21T14:35:23.131Z,24.70
2018-09-21T14:37:51.451Z,24.80
2018-09-21T14:40:19.704Z,24.90
2018-09-21T14:42:47.977Z,25.30
2018-09-21T14:45:16.170Z,25.20
2018-09-21T14:47:44.463Z,25.30
2018-09-21T14:50:12.688Z,25.50
2018-09-21T14:52:41.035Z,25.70
2018-09-21T14:55:09.679Z,25.80
2018-09-21T14:57:37.997Z,25.80
2018-09-21T15:00:06.327Z,25.90
2018-09-21T15:02:34.713Z,26.10
2018-09-21T15:05:02.966Z,26.10
2018-09-21T15:07:31.269Z,26.20
2018-09-21T15:09:59.486Z,26.30
2018-09-21T15:12:28.575Z,26.50
2018-09-21T15:14:56.818Z,26.40
2018-09-21T15:17:25.006Z,26.60
2018-09-21T15:19:53.340Z,26.80
2018-09-21T15:22:21.603Z,26.90
2018-09-21T15:24:49.901Z,28.40
2018-09-21T15:27:18.189Z,28.80
2018-09-21T15:29:46.688Z,28.70
2018-09-21T15:32:15.231Z,28.80
2018-09-21T15:34:44.390Z,29.00
2018-09-21T15:37:13.020Z,29.40
2018-09-21T15:39:41.309Z,29.70
2018-09-21T15:42:09.606Z,30.00
2018-09-21T15:44:37.927Z,30.50
2018-09-21T15:47:06.218Z,31.40
2018-09-21T15:49:34.533Z,32.10
2018-09-21T15:52:02.844Z,32.70
2018-09-21T15:54:31.347Z,33.40
2018-09-21T15:56:59.574Z,33.70
2018-09-21T15:59:28.463Z,33.90
2018-09-21T16:01:56.706Z,34.20
2018-09-21T16:04:25.179Z,34.30
2018-09-21T16:06:53.410Z,34.70
2018-09-21T16:09:21.686Z,34.70
2018-09-21T16:11:50.029Z,34.70
2018-09-21T16:14:18.313Z,34.50
2018-09-21T16:16:46.594Z,34.90
2018-09-21T16:19:14.861Z,35.30
2018-09-21T16:21:43.142Z,35.90
2018-09-21T16:24:11.447Z,35.80
2018-09-21T16:26:39.625Z,37.50
2018-09-21T16:29:08.015Z,39.30
2018-09-21T16:31:36.295Z,39.40
2018-09-21T16:34:04.550Z,39.80
2018-09-21T16:36:33.131Z,41.30
2018-09-21T16:39:01.396Z,43.00
2018-09-21T16:41:29.774Z,45.90
2018-09-21T16:43:58.047Z,45.70
2018-09-21T16:46:26.269Z,47.90
2018-09-21T16:48:54.511Z,49.40
2018-09-21T16:51:22.883Z,49.20
2018-09-21T16:53:51.481Z,50.10
2018-09-21T16:56:19.763Z,50.80
2018-09-21T16:58:48.318Z,51.20
2018-09-21T17:01:16.561Z,50.90
2018-09-21T17:03:44.761Z,51.50
2018-09-21T17:06:13.017Z,52.00
2018-09-21T17:08:41.381Z,52.00
2018-09-21T17:11:09.622Z,52.00
2018-09-21T17:13:37.970Z,51.40
2018-09-21T17:16:06.206Z,51.80
2018-09-21T17:18:34.489Z,52.00
2018-09-21T17:21:02.762Z,52.00
2018-09-21T17:23:32.916Z,50.60
2018-09-21T17:26:01.225Z,50.40
2018-09-21T17:28:29.553Z,50.50
2018-09-21T17:30:57.783Z,49.90
2018-09-21T17:33:26.005Z,50.50
2018-09-21T17:35:54.221Z,49.80
2018-09-21T17:38:22.495Z,49.80
2018-09-21T17:40:50.788Z,50.40
2018-09-21T17:43:19.015Z,49.90
2018-09-21T17:45:47.428Z,49.30
2018-09-21T17:48:15.735Z,49.60
2018-09-21T17:50:44.041Z,49.70
2018-09-21T17:53:12.274Z,50.80
2018-09-21T17:55:40.506Z,49.30
2018-09-21T17:58:08.864Z,49.40
2018-09-21T18:00:37.468Z,48.90
2018-09-21T18:03:05.662Z,48.40
2018-09-21T18:05:34.163Z,49.30
2018-09-21T18:08:02.454Z,50.00
2018-09-21T18:10:30.700Z,51.00
2018-09-21T18:12:58.995Z,51.90
2018-09-21T18:15:27.280Z,52.60
2018-09-21T18:17:55.591Z,52.70
2018-09-21T18:20:23.914Z,52.90
2018-09-21T18:22:52.217Z,52.10
2018-09-21T18:25:20.523Z,52.20
2018-09-21T18:27:48.889Z,53.30
2018-09-21T18:30:17.176Z,51.90
2018-09-21T18:32:45.429Z,50.90
2018-09-21T18:35:13.897Z,48.20
2018-09-21T18:37:42.158Z,46.60
2018-09-21T18:40:10.469Z,47.70
2018-09-21T18:42:38.810Z,48.50
2018-09-21T18:45:07.780Z,50.00
2018-09-21T18:47:36.180Z,50.00
2018-09-21T18:50:04.612Z,51.60
2018-09-21T18:52:32.927Z,52.80
2018-09-21T18:55:01.214Z,52.80
2018-09-21T18:57:29.537Z,52.70
2018-09-21T18:59:57.838Z,51.30
2018-09-21T19:02:26.204Z,52.10
2018-09-21T19:04:54.457Z,52.70
2018-09-21T19:07:28.639Z,51.70
2018-09-21T19:09:57.041Z,52.10
2018-09-21T19:12:25.248Z,51.20
2018-09-21T19:14:53.490Z,52.10
2018-09-21T19:17:22.011Z,52.00
2018-09-21T19:19:50.515Z,54.20
2018-09-21T19:22:18.833Z,53.60
2018-09-21T19:24:47.194Z,53.90
2018-09-21T19:27:15.583Z,54.50
2018-09-21T19:29:43.906Z,55.20
2018-09-21T19:32:12.142Z,55.60
2018-09-21T19:34:40.618Z,56.00
2018-09-21T19:37:08.889Z,55.70
2018-09-21T19:39:37.399Z,55.90
2018-09-21T19:42:05.837Z,56.10
2018-09-21T19:44:34.096Z,56.20
2018-09-21T19:47:02.435Z,57.50
2018-09-21T19:49:30.813Z,56.50
2018-09-21T19:51:59.193Z,54.50
2018-09-21T19:54:27.935Z,53.80
2018-09-21T19:56:56.381Z,54.60
2018-09-21T19:59:24.690Z,55.30
2018-09-21T20:01:52.932Z,55.40
2018-09-21T20:04:21.330Z,54.20
2018-09-21T20:06:49.605Z,55.70
2018-09-21T20:09:17.894Z,53.60
2018-09-21T20:11:46.170Z,52.60
2018-09-21T20:14:14.500Z,52.50
2018-09-21T20:16:42.842Z,52.40
2018-09-21T20:19:11.908Z,52.40
2018-09-21T20:21:40.163Z,52.30
2018-09-21T20:24:08.418Z,52.10
2018-09-21T20:26:36.708Z,52.60
2018-09-21T20:29:05.122Z,52.00
2018-09-21T20:31:38.778Z,52.10
2018-09-21T20:34:07.064Z,51.70
2018-09-21T20:36:35.862Z,52.80
2018-09-21T20:39:05.880Z,52.90
2018-09-21T20:41:34.135Z,51.80
2018-09-21T20:44:03.248Z,52.70
2018-09-21T20:46:31.465Z,51.70
2018-09-21T20:48:59.719Z,50.80
2018-09-21T20:51:27.978Z,51.60
2018-09-21T20:53:56.229Z,50.40
2018-09-21T20:56:24.479Z,50.90
2018-09-21T20:58:52.758Z,51.90
2018-09-21T21:01:21.234Z,52.00
2018-09-21T21:03:50.272Z,52.10
2018-09-21T21:06:18.786Z,52.10
2018-09-21T21:08:47.157Z,51.70
2018-09-21T21:11:15.746Z,51.10
2018-09-21T21:13:44.114Z,51.20
2018-09-21T21:16:12.789Z,50.90
2018-09-21T21:18:41.634Z,51.30
2018-09-21T21:21:10.669Z,50.10
2018-09-21T21:23:39.022Z,51.10
2018-09-21T21:26:07.364Z,51.30
2018-09-21T21:28:35.923Z,51.30
2018-09-21T21:31:04.510Z,51.20
2018-09-21T21:33:32.956Z,51.20
2018-09-21T21:36:02.369Z,49.90
2018-09-21T21:38:31.245Z,50.00
2018-09-21T21:41:00.246Z,49.80
2018-09-21T21:43:28.615Z,49.40
2018-09-21T21:45:57.179Z,48.70
2018-09-21T21:48:25.522Z,48.80
2018-09-21T21:50:53.920Z,49.70
2018-09-21T21:53:22.428Z,49.50
2018-09-21T21:55:50.726Z,48.00
2018-09-21T21:58:19.005Z,47.90
2018-09-21T22:00:52.732Z,48.20
2018-09-21T22:03:21.064Z,48.00
2018-09-21T22:05:49.366Z,48.00
2018-09-21T22:08:17.644Z,48.40
2018-09-21T22:10:46.026Z,47.70
2018-09-21T22:13:19.646Z,47.50
2018-09-21T22:15:47.895Z,46.80
2018-09-21T22:18:16.134Z,47.30
2018-09-21T22:20:44.494Z,45.20
2018-09-21T22:23:12.905Z,46.60
2018-09-21T22:25:41.318Z,45.80
2018-09-21T22:28:09.643Z,46.00
2018-09-21T22:30:38.351Z,45.10
2018-09-21T22:33:06.730Z,45.30
2018-09-21T22:35:35.073Z,45.00
2018-09-21T22:38:03.389Z,45.60
2018-09-21T22:40:31.764Z,46.90
2018-09-21T22:43:00.169Z,45.60
2018-09-21T22:45:28.769Z,44.80
2018-09-21T22:47:57.174Z,44.90
2018-09-21T22:50:25.483Z,45.20
2018-09-21T22:52:53.828Z,44.90
2018-09-21T22:55:22.234Z,44.80
2018-09-21T22:57:50.623Z,44.60
2018-09-21T23:00:18.968Z,44.40
2018-09-21T23:02:47.290Z,44.30
2018-09-21T23:05:15.553Z,44.50
2018-09-21T23:07:44.254Z,43.90
2018-09-21T23:10:12.794Z,44.20
2018-09-21T23:12:41.092Z,44.30
2018-09-21T23:15:09.835Z,43.80
2018-09-21T23:17:38.182Z,42.80
2018-09-21T23:20:06.597Z,42.70
2018-09-21T23:22:34.954Z,42.90
2018-09-21T23:25:03.183Z,43.30
2018-09-21T23:27:31.689Z,43.90
2018-09-21T23:30:00.039Z,43.10
2018-09-21T23:32:28.249Z,42.90
2018-09-21T23:34:56.496Z,43.10
2018-09-21T23:37:29.074Z,43.20
2018-09-21T23:39:57.656Z,42.90
2018-09-21T23:42:26.047Z,43.00
2018-09-21T23:44:54.294Z,43.10
2018-09-21T23:47:22.682Z,42.70
2018-09-21T23:49:51.070Z,43.10
2018-09-21T23:52:20.212Z,43.00
2018-09-21T23:54:48.963Z,43.10
2018-09-21T23:57:17.335Z,42.50
2018-09-21T23:59:45.598Z,42.20
